createdAt,value
2023-01-19T00:00:54.949Z,7.90
2023-01-19T00:03:21.943Z,7.07
2023-01-19T00:05:49.688Z,7.13
2023-01-19T00:08:17.490Z,7.90
2023-01-19T00:10:53.179Z,7.30
2023-01-19T00:13:20.161Z,8.13
2023-01-19T00:15:47.104Z,8.05
2023-01-19T00:18:14.083Z,7.20
2023-01-19T00:20:41.313Z,7.65
2023-01-19T00:23:08.761Z,7.63
2023-01-19T00:25:42.182Z,8.38
2023-01-19T00:28:14.743Z,6.65
2023-01-19T00:30:42.667Z,7.65
2023-01-19T00:33:11.397Z,8.82
2023-01-19T00:35:38.505Z,7.88
2023-01-19T00:38:05.443Z,7.63
2023-01-19T00:40:32.383Z,7.28
2023-01-19T00:43:00.568Z,7.07
2023-01-19T00:45:27.904Z,8.07
2023-01-19T00:47:57.032Z,8.25
2023-01-19T00:50:27.302Z,8.02
2023-01-19T00:52:56.016Z,7.20
2023-01-19T00:55:23.880Z,7.18
2023-01-19T00:57:51.107Z,8.35
2023-01-19T01:00:20.261Z,7.05
2023-01-19T01:02:49.914Z,8.45
2023-01-19T01:05:18.488Z,7.38
2023-01-19T01:07:46.895Z,7.75
2023-01-19T01:10:26.758Z,7.13
2023-01-19T01:12:57.787Z,7.60
2023-01-19T01:15:28.279Z,6.75
2023-01-19T01:17:56.036Z,7.68
2023-01-19T01:20:27.616Z,7.55
2023-01-19T01:22:55.956Z,7.55
2023-01-19T01:25:25.526Z,7.95
2023-01-19T01:27:53.393Z,7.28
2023-01-19T01:30:21.537Z,7.60
2023-01-19T01:32:48.898Z,6.85
2023-01-19T01:35:17.094Z,7.70
2023-01-19T01:37:44.776Z,8.32
2023-01-19T01:40:16.315Z,7.90
2023-01-19T01:42:43.291Z,7.75
2023-01-19T01:45:35.813Z,7.57
2023-01-19T01:48:28.069Z,7.38
2023-01-19T01:51:20.012Z,7.65
2023-01-19T01:53:58.140Z,6.75
2023-01-19T01:56:35.642Z,7.05
2023-01-19T01:59:08.996Z,7.10
2023-01-19T02:01:55.675Z,6.72
2023-01-19T02:04:23.718Z,7.10
2023-01-19T02:07:09.553Z,6.90
2023-01-19T02:09:56.259Z,6.38
2023-01-19T02:12:41.968Z,6.40
2023-01-19T02:15:20.525Z,6.72
2023-01-19T02:17:47.840Z,6.68
2023-01-19T02:20:15.542Z,6.70
2023-01-19T02:22:51.224Z,6.57
2023-01-19T02:25:20.182Z,7.40
2023-01-19T02:27:49.065Z,6.63
2023-01-19T02:30:17.584Z,6.85
2023-01-19T02:32:44.706Z,6.95
2023-01-19T02:35:12.994Z,7.70
2023-01-19T02:37:41.293Z,6.90
2023-01-19T02:40:20.139Z,7.63
2023-01-19T02:42:52.945Z,6.78
2023-01-19T02:45:22.563Z,7.57
2023-01-19T02:47:52.513Z,7.32
2023-01-19T02:51:00.910Z,7.38
2023-01-19T02:53:47.479Z,6.07
2023-01-19T02:56:28.342Z,5.43
2023-01-19T02:59:38.783Z,5.88
2023-01-19T03:02:31.143Z,6.07
2023-01-19T03:05:17.023Z,5.47
2023-01-19T03:08:27.404Z,5.80
2023-01-19T03:11:12.457Z,5.57
2023-01-19T03:14:01.978Z,6.65
2023-01-19T03:16:55.555Z,5.68
2023-01-19T03:19:31.814Z,6.05
2023-01-19T03:22:03.295Z,5.60
2023-01-19T03:24:40.075Z,6.70
2023-01-19T03:27:26.887Z,6.85
2023-01-19T03:30:11.263Z,6.60
2023-01-19T03:32:51.434Z,6.35
2023-01-19T03:35:21.867Z,5.65
2023-01-19T03:37:54.251Z,5.90
2023-01-19T03:40:22.186Z,6.18
2023-01-19T03:42:50.141Z,6.10
2023-01-19T03:45:18.172Z,6.13
2023-01-19T03:47:45.474Z,6.18
2023-01-19T03:50:24.096Z,5.72
2023-01-19T03:53:13.160Z,5.85
2023-01-19T03:55:44.870Z,6.22
2023-01-19T03:58:11.924Z,5.68
2023-01-19T04:00:39.549Z,6.43
2023-01-19T04:03:13.316Z,6.30
2023-01-19T04:05:40.313Z,6.82
2023-01-19T04:08:07.438Z,6.75
2023-01-19T04:10:34.404Z,6.18
2023-01-19T04:13:02.793Z,6.78
2023-01-19T04:15:30.978Z,7.35
2023-01-19T04:17:59.369Z,7.18
2023-01-19T04:20:28.217Z,6.10
2023-01-19T04:22:59.789Z,7.35
2023-01-19T04:25:28.101Z,6.53
2023-01-19T04:27:55.585Z,6.75
2023-01-19T04:30:22.628Z,6.75
2023-01-19T04:32:49.730Z,6.90
2023-01-19T04:35:17.032Z,7.68
2023-01-19T04:37:45.040Z,7.55
2023-01-19T04:40:12.575Z,6.95
2023-01-19T04:42:43.775Z,7.20
2023-01-19T04:47:38.438Z,5.85
2023-01-19T04:50:06.948Z,5.95
2023-01-19T04:52:35.507Z,7.40
2023-01-19T04:55:05.955Z,6.50
2023-01-19T04:57:32.902Z,6.93
2023-01-19T04:59:59.825Z,6.80
2023-01-19T05:02:26.891Z,6.65
2023-01-19T05:04:53.875Z,6.90
2023-01-19T05:07:20.801Z,6.15
2023-01-19T05:09:50.544Z,6.22
2023-01-19T05:12:17.727Z,6.03
2023-01-19T05:14:44.753Z,6.65
2023-01-19T05:17:13.139Z,6.03
2023-01-19T05:19:40.055Z,6.28
2023-01-19T05:22:07.184Z,6.53
2023-01-19T05:24:34.082Z,6.47
2023-01-19T05:27:01.120Z,5.80
2023-01-19T05:29:28.030Z,6.00
2023-01-19T05:31:54.970Z,5.70
2023-01-19T05:34:21.901Z,6.25
2023-01-19T05:36:48.815Z,6.60
2023-01-19T05:39:15.916Z,6.72
2023-01-19T05:41:44.628Z,7.72
2023-01-19T05:44:12.859Z,6.47
2023-01-19T05:46:40.490Z,7.22
2023-01-19T05:49:07.593Z,7.15
2023-01-19T05:51:37.924Z,6.90
2023-01-19T05:54:06.103Z,6.72
2023-01-19T05:56:33.502Z,6.85
2023-01-19T05:59:01.594Z,7.50
2023-01-19T06:01:28.786Z,7.80
2023-01-19T06:03:55.755Z,7.32
2023-01-19T06:06:23.501Z,6.88
2023-01-19T06:08:50.434Z,7.13
2023-01-19T06:11:17.434Z,7.85
2023-01-19T06:13:44.574Z,7.68
2023-01-19T06:16:11.783Z,7.43
2023-01-19T06:18:38.967Z,6.43
2023-01-19T06:21:12.172Z,7.05
2023-01-19T06:23:39.151Z,6.68
2023-01-19T06:26:06.120Z,7.47
2023-01-19T06:28:33.184Z,6.43
2023-01-19T06:31:00.290Z,6.65
2023-01-19T06:33:27.922Z,6.60
2023-01-19T06:35:55.506Z,7.20
2023-01-19T06:38:22.859Z,7.55
2023-01-19T06:40:56.738Z,6.20
2023-01-19T06:43:23.918Z,7.22
2023-01-19T06:45:51.125Z,7.18
2023-01-19T06:48:19.072Z,7.32
2023-01-19T06:50:47.531Z,6.75
2023-01-19T06:53:16.599Z,6.55
2023-01-19T06:55:44.148Z,6.88
2023-01-19T06:58:12.354Z,7.28
2023-01-19T07:00:39.317Z,6.55
2023-01-19T07:03:16.492Z,7.05
2023-01-19T07:05:43.395Z,7.05
2023-01-19T07:08:10.407Z,7.43
2023-01-19T07:11:26.759Z,7.32
2023-01-19T07:13:24.254Z,7.13
2023-01-19T07:15:51.197Z,7.43
2023-01-19T07:18:18.114Z,7.30
2023-01-19T07:20:46.731Z,6.93
2023-01-19T07:23:13.659Z,6.60
2023-01-19T07:25:40.581Z,6.93
2023-01-19T07:28:07.533Z,7.22
2023-01-19T07:30:34.508Z,7.22
2023-01-19T07:33:02.679Z,7.07
2023-01-19T07:35:30.025Z,7.55
2023-01-19T07:37:56.945Z,6.80
2023-01-19T07:40:24.088Z,7.05
2023-01-19T07:42:52.006Z,7.93
2023-01-19T07:45:20.743Z,7.47
2023-01-19T07:47:49.082Z,7.80
2023-01-19T07:50:18.022Z,6.72
2023-01-19T07:52:45.514Z,6.55
2023-01-19T07:55:12.472Z,7.03
2023-01-19T07:57:39.375Z,6.88
2023-01-19T08:00:08.727Z,6.85
2023-01-19T08:02:41.913Z,6.28
2023-01-19T08:05:09.271Z,6.28
2023-01-19T08:07:36.248Z,7.25
2023-01-19T08:10:03.221Z,7.05
2023-01-19T08:12:30.147Z,7.30
2023-01-19T08:14:57.056Z,6.72
2023-01-19T08:17:23.961Z,6.72
2023-01-19T08:19:50.906Z,6.75
2023-01-19T08:22:17.858Z,6.05
2023-01-19T08:24:44.798Z,7.07
2023-01-19T08:27:14.501Z,6.20
2023-01-19T08:29:41.437Z,6.88
2023-01-19T08:32:08.507Z,6.03
2023-01-19T08:34:35.697Z,5.50
2023-01-19T08:37:02.662Z,6.25
2023-01-19T08:39:29.574Z,6.03
2023-01-19T08:41:56.734Z,6.55
2023-01-19T08:44:23.645Z,6.63
2023-01-19T08:46:50.681Z,6.15
2023-01-19T08:49:20.603Z,6.20
2023-01-19T08:51:49.021Z,6.60
2023-01-19T08:54:18.585Z,6.47
2023-01-19T08:56:45.687Z,7.07
2023-01-19T08:59:14.119Z,6.43
2023-01-19T09:01:41.334Z,6.72
2023-01-19T09:04:08.744Z,6.40
2023-01-19T09:06:35.829Z,6.88
2023-01-19T09:09:03.487Z,6.28
2023-01-19T09:11:30.768Z,7.13
2023-01-19T09:13:57.699Z,7.38
2023-01-19T09:16:26.983Z,6.97
2023-01-19T09:18:54.117Z,7.32
2023-01-19T09:21:21.116Z,6.82
2023-01-19T09:23:49.099Z,7.15
2023-01-19T09:26:16.619Z,7.18
2023-01-19T09:28:43.614Z,7.28
2023-01-19T09:31:10.625Z,7.15
2023-01-19T09:33:37.717Z,7.55
2023-01-19T09:36:04.930Z,7.40
2023-01-19T09:38:32.784Z,6.90
2023-01-19T09:41:01.086Z,6.90
2023-01-19T09:43:45.523Z,7.28
2023-01-19T09:46:38.645Z,7.20
2023-01-19T09:49:23.219Z,6.32
2023-01-19T09:51:51.274Z,7.13
2023-01-19T09:54:46.675Z,7.28
2023-01-19T09:57:14.670Z,7.18
2023-01-19T09:59:43.849Z,6.55
2023-01-19T10:02:37.073Z,6.93
2023-01-19T10:05:29.098Z,6.53
2023-01-19T10:08:32.684Z,6.40
2023-01-19T10:10:59.806Z,7.35
2023-01-19T10:13:54.050Z,6.53
2023-01-19T10:16:53.025Z,6.85
2023-01-19T10:19:27.646Z,7.13
2023-01-19T10:21:58.589Z,6.53
2023-01-19T10:24:43.901Z,6.88
2023-01-19T10:27:17.987Z,6.60
2023-01-19T10:29:46.228Z,6.82
2023-01-19T10:32:25.648Z,7.20
2023-01-19T10:34:54.066Z,7.35
2023-01-19T10:37:34.152Z,6.97
2023-01-19T10:40:10.268Z,6.70
2023-01-19T10:42:40.126Z,7.47
2023-01-19T10:45:23.577Z,7.65
2023-01-19T10:47:52.942Z,7.50
2023-01-19T10:50:28.495Z,6.65
2023-01-19T10:53:02.062Z,6.78
2023-01-19T10:55:38.155Z,6.60
2023-01-19T10:58:07.430Z,6.88
2023-01-19T11:00:39.405Z,6.55
2023-01-19T11:03:26.396Z,6.15
2023-01-19T11:05:53.537Z,6.85
2023-01-19T11:08:31.037Z,6.85
2023-01-19T11:11:08.578Z,7.32
2023-01-19T11:13:36.184Z,7.32
2023-01-19T11:16:39.882Z,6.82
2023-01-19T11:19:20.104Z,6.60
2023-01-19T11:21:47.347Z,6.35
2023-01-19T11:24:16.302Z,7.15
2023-01-19T11:26:47.965Z,6.93
2023-01-19T11:29:23.315Z,7.25
2023-01-19T11:31:52.272Z,6.43
2023-01-19T11:34:22.178Z,6.28
2023-01-19T11:37:05.446Z,6.65
2023-01-19T11:39:54.834Z,6.00
2023-01-19T11:42:22.309Z,6.22
2023-01-19T11:44:52.231Z,6.13
2023-01-19T11:47:41.715Z,7.50
2023-01-19T11:50:42.380Z,6.30
2023-01-19T11:53:25.349Z,6.18
2023-01-19T11:56:02.823Z,5.68
2023-01-19T11:58:32.722Z,6.35
2023-01-19T12:01:21.152Z,6.93
2023-01-19T12:04:15.149Z,6.88
2023-01-19T12:06:47.792Z,6.95
2023-01-19T12:09:27.477Z,6.57
2023-01-19T12:12:04.024Z,6.88
2023-01-19T12:14:54.593Z,6.03
2023-01-19T12:17:33.616Z,6.55
2023-01-19T12:20:31.307Z,6.32
2023-01-19T12:23:19.262Z,6.82
2023-01-19T12:26:16.396Z,5.30
2023-01-19T12:28:48.203Z,5.93
2023-01-19T12:31:21.670Z,5.50
2023-01-19T12:33:49.501Z,5.80
2023-01-19T12:36:33.103Z,5.80
2023-01-19T12:39:04.696Z,5.15
2023-01-19T12:41:41.419Z,6.00
2023-01-19T12:44:11.545Z,5.65
2023-01-19T12:46:49.398Z,6.85
2023-01-19T12:49:44.497Z,5.82
2023-01-19T12:52:20.227Z,5.63
2023-01-19T12:55:06.479Z,5.85
2023-01-19T12:57:40.854Z,6.00
2023-01-19T13:00:10.923Z,5.32
2023-01-19T13:02:47.297Z,5.78
2023-01-19T13:05:17.520Z,5.60
2023-01-19T13:08:02.616Z,5.50
2023-01-19T13:11:00.428Z,6.10
2023-01-19T13:13:45.013Z,5.25
2023-01-19T13:16:27.355Z,5.93
2023-01-19T13:19:00.436Z,5.95
2023-01-19T13:21:39.872Z,5.68
2023-01-19T13:24:24.200Z,5.90
2023-01-19T13:26:53.997Z,5.38
2023-01-19T13:29:34.515Z,5.32
2023-01-19T13:32:17.450Z,5.07
2023-01-19T13:34:52.815Z,5.05
2023-01-19T13:37:28.564Z,5.70
2023-01-19T13:39:56.541Z,4.50
2023-01-19T13:42:41.452Z,4.35
2023-01-19T13:45:34.117Z,4.70
2023-01-19T13:48:06.480Z,4.70
2023-01-19T13:50:39.273Z,4.20
2023-01-19T13:53:21.116Z,5.95
2023-01-19T13:55:48.391Z,4.90
2023-01-19T13:58:23.834Z,4.97
2023-01-19T14:00:51.061Z,4.53
2023-01-19T14:03:23.969Z,4.97
2023-01-19T14:05:53.822Z,5.15
2023-01-19T14:08:22.415Z,4.47
2023-01-19T14:10:56.157Z,5.05
2023-01-19T14:13:26.527Z,4.70
2023-01-19T14:15:57.947Z,4.65
2023-01-19T14:18:33.746Z,4.22
2023-01-19T14:21:13.355Z,3.97
2023-01-19T14:23:46.894Z,3.90
2023-01-19T14:26:52.832Z,4.40
2023-01-19T14:29:33.087Z,3.63
2023-01-19T14:32:15.095Z,3.83
2023-01-19T14:34:50.254Z,4.32
2023-01-19T14:37:35.679Z,3.80
2023-01-19T14:40:05.572Z,4.03
2023-01-19T14:42:44.212Z,4.10
2023-01-19T14:45:21.765Z,3.33
2023-01-19T14:48:04.754Z,3.17
2023-01-19T14:50:42.807Z,3.17
2023-01-19T14:53:28.380Z,2.80
2023-01-19T14:56:02.837Z,3.17
2023-01-19T14:58:33.579Z,3.30
2023-01-19T15:01:00.586Z,3.10
2023-01-19T15:03:44.384Z,3.13
2023-01-19T15:06:19.245Z,3.33
2023-01-19T15:08:47.288Z,3.17
2023-01-19T15:11:24.675Z,3.00
2023-01-19T15:13:51.928Z,3.35
2023-01-19T15:16:19.995Z,2.95
2023-01-19T15:18:47.087Z,3.13
2023-01-19T15:21:19.423Z,3.33
2023-01-19T15:23:47.499Z,3.13
2023-01-19T15:26:18.940Z,3.08
2023-01-19T15:28:48.668Z,3.47
2023-01-19T15:31:17.968Z,3.05
2023-01-19T15:33:45.418Z,3.17
2023-01-19T15:36:22.045Z,4.03
2023-01-19T15:38:50.912Z,3.20
2023-01-19T15:41:31.765Z,3.20
2023-01-19T15:43:59.219Z,2.75
2023-01-19T15:46:26.600Z,3.50
2023-01-19T15:48:54.142Z,3.80
2023-01-19T15:51:28.015Z,4.10
2023-01-19T15:53:55.609Z,3.35
2023-01-19T15:56:31.227Z,3.30
2023-01-19T15:58:59.043Z,3.38
2023-01-19T16:01:32.551Z,3.20
2023-01-19T16:04:02.435Z,3.38
2023-01-19T16:06:30.752Z,3.35
2023-01-19T16:09:01.271Z,3.78
2023-01-19T16:11:31.537Z,2.95
2023-01-19T16:13:58.594Z,3.15
2023-01-19T16:16:26.645Z,2.75
2023-01-19T16:18:53.689Z,2.85
2023-01-19T16:21:20.748Z,3.08
2023-01-19T16:23:47.646Z,3.00
2023-01-19T16:26:36.496Z,3.00
2023-01-19T16:29:08.644Z,3.08
2023-01-19T16:31:37.772Z,2.95
2023-01-19T16:34:04.736Z,3.20
2023-01-19T16:36:35.305Z,3.50
2023-01-19T16:39:07.902Z,3.08
2023-01-19T16:41:35.538Z,3.10
2023-01-19T16:44:03.688Z,3.10
2023-01-19T16:46:36.873Z,3.58
2023-01-19T16:49:13.829Z,4.63
2023-01-19T16:51:40.932Z,4.07
2023-01-19T16:54:11.141Z,3.83
2023-01-19T16:56:38.243Z,3.43
2023-01-19T16:59:05.153Z,4.03
2023-01-19T17:01:32.314Z,3.15
2023-01-19T17:03:59.377Z,3.45
2023-01-19T17:06:26.502Z,3.10
2023-01-19T17:08:53.621Z,4.47
2023-01-19T17:11:24.466Z,3.85
2023-01-19T17:14:06.162Z,3.28
2023-01-19T17:16:35.131Z,3.08
2023-01-19T17:19:05.202Z,3.53
2023-01-19T17:21:32.430Z,3.35
2023-01-19T17:24:00.031Z,2.53
2023-01-19T17:26:29.435Z,3.25
2023-01-19T17:29:04.309Z,3.10
2023-01-19T17:31:32.073Z,3.30
2023-01-19T17:34:00.241Z,3.47
2023-01-19T17:36:29.648Z,3.42
2023-01-19T17:38:59.365Z,3.40
2023-01-19T17:41:29.792Z,3.08
2023-01-19T17:43:57.898Z,3.97
2023-01-19T17:46:28.302Z,3.70
2023-01-19T17:49:03.168Z,3.03
2023-01-19T17:51:31.738Z,3.63
2023-01-19T17:53:59.049Z,3.88
2023-01-19T17:56:30.236Z,4.70
2023-01-19T17:58:59.003Z,4.25
2023-01-19T18:01:33.722Z,3.88
2023-01-19T18:04:02.481Z,3.63
2023-01-19T18:06:29.541Z,4.07
2023-01-19T18:08:58.217Z,3.60
2023-01-19T18:11:26.325Z,3.38
2023-01-19T18:13:53.546Z,3.70
2023-01-19T18:16:27.488Z,3.33
2023-01-19T18:18:56.328Z,3.35
2023-01-19T18:21:27.237Z,3.78
2023-01-19T18:24:05.684Z,3.22
2023-01-19T18:26:34.584Z,3.45
2023-01-19T18:29:01.607Z,3.47
2023-01-19T18:31:28.919Z,4.25
2023-01-19T18:33:55.933Z,3.60
2023-01-19T18:36:23.026Z,3.97
2023-01-19T18:38:50.163Z,4.55
2023-01-19T18:41:20.843Z,4.93
2023-01-19T18:43:48.633Z,5.20
2023-01-19T18:46:16.762Z,4.78
2023-01-19T18:48:43.892Z,4.68
2023-01-19T18:51:13.868Z,4.57
2023-01-19T18:53:41.045Z,4.35
2023-01-19T18:56:10.937Z,4.00
2023-01-19T18:58:40.238Z,3.67
2023-01-19T19:01:31.509Z,4.15
2023-01-19T19:03:59.818Z,4.20
2023-01-19T19:06:27.779Z,4.85
2023-01-19T19:08:57.572Z,4.75
2023-01-19T19:11:25.807Z,5.10
2023-01-19T19:14:00.937Z,5.20
2023-01-19T19:16:28.788Z,4.78
2023-01-19T19:18:55.949Z,4.80
2023-01-19T19:21:25.464Z,4.65
2023-01-19T19:23:55.161Z,5.20
2023-01-19T19:26:24.223Z,5.13
2023-01-19T19:28:51.199Z,5.18
2023-01-19T19:31:21.663Z,4.93
2023-01-19T19:33:50.855Z,5.50
2023-01-19T19:36:19.738Z,4.88
2023-01-19T19:38:47.750Z,5.43
2023-01-19T19:41:22.142Z,4.88
2023-01-19T19:43:49.907Z,4.95
2023-01-19T19:46:20.058Z,5.75
2023-01-19T19:48:49.828Z,6.22
2023-01-19T19:51:27.010Z,5.68
2023-01-19T19:54:00.151Z,5.63
2023-01-19T19:56:30.543Z,5.80
2023-01-19T19:58:59.165Z,5.82
2023-01-19T20:01:32.539Z,5.40
2023-01-19T20:04:09.267Z,5.93
2023-01-19T20:06:39.795Z,5.10
2023-01-19T20:09:10.323Z,5.18
2023-01-19T20:11:37.501Z,5.28
2023-01-19T20:14:10.311Z,5.25
2023-01-19T20:16:38.200Z,4.82
2023-01-19T20:19:05.623Z,5.20
2023-01-19T20:21:36.266Z,5.45
2023-01-19T20:24:07.705Z,4.80
2023-01-19T20:26:39.831Z,5.18
2023-01-19T20:29:07.203Z,5.72
2023-01-19T20:31:43.402Z,6.38
2023-01-19T20:34:13.659Z,5.90
2023-01-19T20:36:57.186Z,5.10
2023-01-19T20:39:25.087Z,5.25
2023-01-19T20:41:52.699Z,5.45
2023-01-19T20:44:24.059Z,5.22
2023-01-19T20:46:52.887Z,5.15
2023-01-19T20:49:20.557Z,5.18
2023-01-19T20:51:48.482Z,5.43
2023-01-19T20:54:19.884Z,5.13
2023-01-19T20:56:46.919Z,4.97
2023-01-19T20:59:14.531Z,5.03
2023-01-19T21:01:42.447Z,5.55
2023-01-19T21:04:09.920Z,5.35
2023-01-19T21:06:37.624Z,5.35
2023-01-19T21:09:04.994Z,4.88
2023-01-19T21:11:31.993Z,5.20
2023-01-19T21:14:00.013Z,5.07
2023-01-19T21:16:31.660Z,5.07
2023-01-19T21:18:59.139Z,5.22
2023-01-19T21:21:31.384Z,5.03
2023-01-19T21:24:01.111Z,5.07
2023-01-19T21:26:33.352Z,4.93
2023-01-19T21:29:01.906Z,5.28
2023-01-19T21:31:29.160Z,5.00
2023-01-19T21:33:59.059Z,5.30
2023-01-19T21:36:26.372Z,5.25
2023-01-19T21:38:55.472Z,5.55
2023-01-19T21:41:22.851Z,5.05
2023-01-19T21:43:49.802Z,5.03
2023-01-19T21:46:29.347Z,5.28
2023-01-19T21:48:59.328Z,4.97
2023-01-19T21:51:27.186Z,5.68
2023-01-19T21:53:59.522Z,5.50
2023-01-19T21:56:28.256Z,5.95
2023-01-19T21:58:56.898Z,5.40
2023-01-19T22:01:24.164Z,5.45
2023-01-19T22:03:56.437Z,5.90
2023-01-19T22:06:24.939Z,6.30
2023-01-19T22:08:52.507Z,7.13
2023-01-19T22:11:21.291Z,6.47
2023-01-19T22:13:48.521Z,6.75
2023-01-19T22:16:19.385Z,6.53
2023-01-19T22:18:56.216Z,5.93
2023-01-19T22:21:34.106Z,5.38
2023-01-19T22:24:02.822Z,6.53
2023-01-19T22:26:31.889Z,6.60
2023-01-19T22:29:01.807Z,6.78
2023-01-19T22:31:30.776Z,6.63
2023-01-19T22:33:58.520Z,6.82
2023-01-19T22:36:38.103Z,6.05
2023-01-19T22:39:08.829Z,6.22
2023-01-19T22:41:42.808Z,5.82
2023-01-19T22:44:16.519Z,6.88
2023-01-19T22:46:43.877Z,6.88
2023-01-19T22:49:14.895Z,7.28
2023-01-19T22:51:42.360Z,6.82
2023-01-19T22:54:10.590Z,7.85
2023-01-19T22:56:39.495Z,7.15
2023-01-19T22:59:07.560Z,7.13
2023-01-19T23:01:43.444Z,7.38
2023-01-19T23:04:15.849Z,6.82
2023-01-19T23:06:43.023Z,7.28
2023-01-19T23:09:14.910Z,7.05
2023-01-19T23:11:45.670Z,7.25
2023-01-19T23:14:16.714Z,7.25
2023-01-19T23:16:44.033Z,7.07
2023-01-19T23:19:12.723Z,7.47
2023-01-19T23:21:40.627Z,7.22
2023-01-19T23:24:08.112Z,6.95
2023-01-19T23:26:38.299Z,7.05
2023-01-19T23:29:14.559Z,7.53
2023-01-19T23:31:48.787Z,6.45
2023-01-19T23:34:16.287Z,7.18
2023-01-19T23:36:43.767Z,7.07
2023-01-19T23:39:14.992Z,6.82
2023-01-19T23:41:41.921Z,6.97
2023-01-19T23:44:08.827Z,7.00
2023-01-19T23:46:35.871Z,7.30
2023-01-19T23:49:02.888Z,6.78
2023-01-19T23:51:31.633Z,6.88
2023-01-19T23:53:59.914Z,7.03
2023-01-19T23:56:31.652Z,6.72
2023-01-19T23:59:06.851Z,6.80
